Time;durP1;ratioP1;P1;durP2;ratioP2;P2;SDS_P1;SDS_P2;PMS_P1;PMS_P2;Temp;Humidity;BMP_temperature;BMP_pressure;BME280_temperature;BME280_humidity;BME280_pressure;Samples;Min_cycle;Max_cycle;Signal;HPM_P1;HPM_P2
2021/08/09 00:00:23;;;;;;;;;;;15.30;82.50;;;;;;4954419;29;19922;-62
2021/08/09 00:02:48;;;;;;;;;;;15.30;82.60;;;;;;4955199;28;19929;-62
2021/08/09 00:05:14;;;;;;;;;;;15.20;82.70;;;;;;4955619;28;19918;-62
2021/08/09 00:07:39;;;;;;;;;;;15.30;83.00;;;;;;4955315;28;19918;-62
2021/08/09 00:10:05;;;;;;;;;;;15.30;83.20;;;;;;4954790;28;19923;-61
2021/08/09 00:12:31;;;;;;;;;;;15.20;83.20;;;;;;4955519;28;20375;-62
2021/08/09 00:14:56;;;;;;;;;;;15.30;83.30;;;;;;4955102;28;19926;-62
2021/08/09 00:17:22;;;;;;;;;;;15.30;83.40;;;;;;4953988;28;19944;-62
2021/08/09 00:19:47;;;;;;;;;;;15.30;83.50;;;;;;4955485;28;20383;-62
2021/08/09 00:22:13;;;;;;;;;;;15.30;83.60;;;;;;4954942;28;19929;-62
2021/08/09 00:24:38;;;;;;;;;;;15.30;83.70;;;;;;4955282;28;20291;-62
2021/08/09 00:27:04;;;;;;;;;;;15.30;83.70;;;;;;4954453;28;19941;-62
2021/08/09 00:29:30;;;;;;;;;;;15.30;83.70;;;;;;4955107;28;19930;-62
2021/08/09 00:31:56;;;;;;;;;;;15.20;83.80;;;;;;4955093;28;19925;-62
2021/08/09 00:34:21;;;;;;;;;;;15.20;83.80;;;;;;4969521;28;20276;-62
2021/08/09 00:36:47;;;;;;;;;;;15.20;83.80;;;;;;4954831;28;19919;-63
2021/08/09 00:39:13;;;;;;;;;;;15.10;83.80;;;;;;4969939;28;19922;-62
2021/08/09 00:41:39;;;;;;;;;;;15.10;84.00;;;;;;4969419;28;20319;-63
2021/08/09 00:44:05;;;;;;;;;;;15.10;84.00;;;;;;4953684;29;19918;-62
2021/08/09 00:46:33;;;;;;;;;;;15.10;84.20;;;;;;4937418;28;19971;-62
2021/08/09 00:48:59;;;;;;;;;;;15.00;84.30;;;;;;4969317;28;20402;-62
2021/08/09 00:51:24;;;;;;;;;;;15.00;84.40;;;;;;4954772;28;19926;-62
2021/08/09 00:53:53;;;;;;;;;;;15.00;84.50;;;;;;4952939;28;20314;-62
2021/08/09 00:56:20;;;;;;;;;;;15.00;84.50;;;;;;4969722;28;20002;-62
2021/08/09 00:58:46;;;;;;;;;;;14.90;84.60;;;;;;4953088;29;19918;-64
2021/08/09 01:01:11;;;;;;;;;;;14.90;84.70;;;;;;4936789;28;19940;-63
2021/08/09 01:03:38;;;;;;;;;;;15.00;84.90;;;;;;4953154;29;19918;-64
2021/08/09 01:06:05;;;;;;;;;;;14.90;85.00;;;;;;4952628;28;19918;-63
2021/08/09 01:08:37;;;;;;;;;;;14.90;85.20;;;;;;4952571;28;19920;-64
2021/08/09 01:11:18;;;;;;;;;;;14.90;85.30;;;;;;4937043;29;19922;-63
2021/08/09 01:14:02;;;;;;;;;;;15.00;85.60;;;;;;4952768;29;19922;-63
2021/08/09 01:16:32;;;;;;;;;;;15.10;85.80;;;;;;4968926;28;19925;-64
2021/08/09 01:19:00;;;;;;;;;;;15.20;86.00;;;;;;4953706;28;20383;-64
2021/08/09 01:21:30;;;;;;;;;;;15.30;85.90;;;;;;4952293;28;19993;-63
2021/08/09 01:24:05;;;;;;;;;;;15.30;85.80;;;;;;4952440;28;19918;-64
2021/08/09 01:26:35;;;;;;;;;;;15.40;85.80;;;;;;4968690;28;19925;-64
2021/08/09 01:29:03;;;;;;;;;;;15.50;85.80;;;;;;4968245;28;20346;-63
2021/08/09 01:31:33;;;;;;;;;;;15.50;85.70;;;;;;4952735;28;19922;-64
2021/08/09 01:33:59;;;;;;;;;;;15.50;85.60;;;;;;4968824;28;19919;-63
2021/08/09 01:36:26;;;;;;;;;;;15.60;85.60;;;;;;4952370;28;19922;-64
2021/08/09 01:38:52;;;;;;;;;;;15.60;85.60;;;;;;4952285;29;20486;-64
2021/08/09 01:41:18;;;;;;;;;;;15.60;85.60;;;;;;4968183;28;20379;-64
2021/08/09 01:43:44;;;;;;;;;;;15.70;85.70;;;;;;4968609;28;19918;-64
2021/08/09 01:46:12;;;;;;;;;;;15.60;85.70;;;;;;4953754;28;20402;-63
2021/08/09 01:48:40;;;;;;;;;;;15.70;85.70;;;;;;4951673;28;19922;-64
2021/08/09 01:51:05;;;;;;;;;;;15.70;85.60;;;;;;4953749;28;20107;-64
2021/08/09 01:53:31;;;;;;;;;;;15.70;85.50;;;;;;4968068;28;20391;-64
2021/08/09 01:55:58;;;;;;;;;;;15.70;85.50;;;;;;4968237;28;19923;-64
2021/08/09 01:58:25;;;;;;;;;;;15.80;85.50;;;;;;4952197;29;19918;-63
2021/08/09 02:00:51;;;;;;;;;;;15.80;85.60;;;;;;4935979;28;20372;-64
2021/08/09 02:03:17;;;;;;;;;;;15.70;85.40;;;;;;4952071;29;20005;-65
2021/08/09 02:05:43;;;;;;;;;;;15.80;85.40;;;;;;4953478;28;20339;-63
2021/08/09 02:08:11;;;;;;;;;;;15.80;85.40;;;;;;4951621;28;19957;-64
2021/08/09 02:10:37;;;;;;;;;;;15.70;85.40;;;;;;4968050;28;19929;-63
2021/08/09 02:13:18;;;;;;;;;;;15.80;85.50;;;;;;4967819;28;19950;-64
2021/08/09 02:16:03;;;;;;;;;;;15.80;85.40;;;;;;4968257;28;19919;-63
2021/08/09 02:18:45;;;;;;;;;;;15.80;85.40;;;;;;4951713;29;20039;-64
2021/08/09 02:21:13;;;;;;;;;;;15.80;85.40;;;;;;4936344;28;20391;-64
2021/08/09 02:23:50;;;;;;;;;;;15.80;85.40;;;;;;4951826;28;20372;-64
2021/08/09 02:26:18;;;;;;;;;;;15.90;85.40;;;;;;4952144;29;19925;-63
2021/08/09 02:28:46;;;;;;;;;;;15.90;85.30;;;;;;4967455;28;20402;-63
2021/08/09 02:31:13;;;;;;;;;;;15.90;85.30;;;;;;4968174;28;19919;-63
2021/08/09 02:33:39;;;;;;;;;;;15.90;85.30;;;;;;4955546;28;19918;-63
2021/08/09 02:36:05;;;;;;;;;;;15.90;85.30;;;;;;4971775;28;19918;-63
2021/08/09 02:38:32;;;;;;;;;;;15.90;85.10;;;;;;4939976;29;19918;-64
2021/08/09 02:40:59;;;;;;;;;;;15.90;85.10;;;;;;4955288;28;19992;-64
2021/08/09 02:43:26;;;;;;;;;;;15.90;85.00;;;;;;4955676;28;19923;-64
2021/08/09 02:45:56;;;;;;;;;;;15.90;85.00;;;;;;4955521;28;19923;-64
2021/08/09 02:48:21;;;;;;;;;;;15.90;84.90;;;;;;4955143;29;20020;-63
2021/08/09 02:50:48;;;;;;;;;;;15.90;84.80;;;;;;4956897;28;20423;-64
2021/08/09 02:53:15;;;;;;;;;;;15.90;84.80;;;;;;4971464;28;19922;-63
2021/08/09 02:55:41;;;;;;;;;;;15.90;84.70;;;;;;4955292;29;19918;-64
2021/08/09 02:58:07;;;;;;;;;;;15.90;84.70;;;;;;4971335;28;19923;-64
2021/08/09 03:00:35;;;;;;;;;;;15.80;84.70;;;;;;4955141;28;19922;-64
2021/08/09 03:03:01;;;;;;;;;;;15.80;84.60;;;;;;4955366;29;20005;-63
2021/08/09 03:05:29;;;;;;;;;;;15.80;84.50;;;;;;4971036;28;20025;-64
2021/08/09 03:07:54;;;;;;;;;;;15.80;84.40;;;;;;4956382;28;20355;-63
2021/08/09 03:10:20;;;;;;;;;;;15.70;84.30;;;;;;4955207;29;19981;-64
2021/08/09 03:12:54;;;;;;;;;;;15.70;84.30;;;;;;4970924;28;19973;-63
2021/08/09 03:15:20;;;;;;;;;;;15.60;84.70;;;;;;4971347;28;19925;-63
2021/08/09 03:17:47;;;;;;;;;;;15.50;84.40;;;;;;4955688;28;20283;-63
2021/08/09 03:20:12;;;;;;;;;;;15.40;84.50;;;;;;4939370;28;19924;-64
2021/08/09 03:22:38;;;;;;;;;;;15.40;84.60;;;;;;4956506;28;19918;-63
2021/08/09 03:25:04;;;;;;;;;;;15.30;84.80;;;;;;4954552;28;20379;-63
2021/08/09 03:27:30;;;;;;;;;;;15.30;84.90;;;;;;4954686;28;19914;-63
2021/08/09 03:29:55;;;;;;;;;;;15.20;85.10;;;;;;4970581;28;20302;-63
2021/08/09 03:32:21;;;;;;;;;;;15.20;85.20;;;;;;4970915;28;19957;-64
2021/08/09 03:34:47;;;;;;;;;;;15.20;85.40;;;;;;4970924;28;19954;-63
2021/08/09 03:37:13;;;;;;;;;;;15.10;85.60;;;;;;4954112;28;19923;-64
2021/08/09 03:39:39;;;;;;;;;;;15.10;85.70;;;;;;4954666;29;19926;-63
2021/08/09 03:42:04;;;;;;;;;;;15.10;85.80;;;;;;4970758;28;19945;-64
2021/08/09 03:44:30;;;;;;;;;;;15.00;85.80;;;;;;4953655;28;19922;-63
2021/08/09 03:46:56;;;;;;;;;;;15.00;85.90;;;;;;4970290;28;20410;-65
2021/08/09 03:49:22;;;;;;;;;;;15.00;86.10;;;;;;4955623;28;20033;-63
2021/08/09 03:51:47;;;;;;;;;;;15.00;86.30;;;;;;4970291;28;19981;-63
2021/08/09 03:54:13;;;;;;;;;;;14.90;86.30;;;;;;4955718;28;19919;-63
2021/08/09 03:56:38;;;;;;;;;;;14.90;86.40;;;;;;4955302;28;20026;-63
2021/08/09 03:59:04;;;;;;;;;;;14.90;86.60;;;;;;4954155;28;19969;-63
2021/08/09 04:01:37;;;;;;;;;;;14.90;86.70;;;;;;4954194;28;20380;-64
2021/08/09 04:04:03;;;;;;;;;;;14.90;86.80;;;;;;4953976;28;20008;-64
2021/08/09 04:06:28;;;;;;;;;;;14.90;87.00;;;;;;4955506;28;20346;-62
2021/08/09 04:08:54;;;;;;;;;;;14.90;87.10;;;;;;4955160;28;20276;-64
2021/08/09 04:11:19;;;;;;;;;;;14.90;87.20;;;;;;4969739;28;20339;-63
2021/08/09 04:13:46;;;;;;;;;;;14.90;87.20;;;;;;4954220;29;19914;-63
2021/08/09 04:16:12;;;;;;;;;;;14.90;87.30;;;;;;4953662;28;19930;-64
2021/08/09 04:18:38;;;;;;;;;;;14.90;87.40;;;;;;4953780;29;19957;-63
2021/08/09 04:21:04;;;;;;;;;;;14.90;88.00;;;;;;4969938;28;19919;-63
2021/08/09 04:23:30;;;;;;;;;;;14.90;87.50;;;;;;4954590;28;19925;-64
2021/08/09 04:25:56;;;;;;;;;;;14.90;87.60;;;;;;4969217;28;19918;-63
2021/08/09 04:28:23;;;;;;;;;;;14.90;87.70;;;;;;4968816;28;19973;-64
2021/08/09 04:30:49;;;;;;;;;;;14.90;87.70;;;;;;4953105;28;19926;-64
2021/08/09 04:33:15;;;;;;;;;;;15.00;87.90;;;;;;4937595;29;19968;-63
2021/08/09 04:35:41;;;;;;;;;;;15.00;87.90;;;;;;4969254;28;19919;-63
2021/08/09 04:38:06;;;;;;;;;;;15.00;87.90;;;;;;4953143;29;19918;-64
2021/08/09 04:40:32;;;;;;;;;;;15.00;87.90;;;;;;4954781;28;19918;-63
2021/08/09 04:42:59;;;;;;;;;;;15.00;88.00;;;;;;4953107;28;19950;-63
2021/08/09 04:45:26;;;;;;;;;;;15.10;88.10;;;;;;4969392;28;20005;-64
2021/08/09 04:47:52;;;;;;;;;;;15.10;88.10;;;;;;4969090;28;20410;-65
2021/08/09 04:50:18;;;;;;;;;;;15.20;88.20;;;;;;4952870;28;19954;-65
2021/08/09 04:52:43;;;;;;;;;;;15.20;88.10;;;;;;4953231;28;19950;-64
2021/08/09 04:55:13;;;;;;;;;;;15.20;88.10;;;;;;4967890;28;19922;-64
2021/08/09 04:57:40;;;;;;;;;;;15.30;88.30;;;;;;4968774;28;19923;-65
2021/08/09 05:00:06;;;;;;;;;;;15.30;88.20;;;;;;4969409;28;19933;-64
2021/08/09 05:02:37;;;;;;;;;;;15.40;88.30;;;;;;4952580;28;20398;-64
2021/08/09 05:05:04;;;;;;;;;;;15.40;88.30;;;;;;4953093;28;19922;-64
2021/08/09 05:07:30;;;;;;;;;;;15.50;88.30;;;;;;4968459;28;19918;-64
2021/08/09 05:09:56;;;;;;;;;;;15.60;88.20;;;;;;4953047;28;19922;-63
2021/08/09 05:12:23;;;;;;;;;;;15.60;88.10;;;;;;4954221;28;19923;-64
2021/08/09 05:14:54;;;;;;;;;;;15.60;87.90;;;;;;4953077;28;19919;-64
2021/08/09 05:17:20;;;;;;;;;;;15.70;87.80;;;;;;4954012;28;19922;-63
2021/08/09 05:19:45;;;;;;;;;;;15.70;87.90;;;;;;4953966;28;19962;-64
2021/08/09 05:22:11;;;;;;;;;;;15.80;87.80;;;;;;4952873;29;20362;-65
2021/08/09 05:24:39;;;;;;;;;;;15.80;87.80;;;;;;4968993;28;19934;-63
2021/08/09 05:27:04;;;;;;;;;;;15.90;87.80;;;;;;4968009;28;19918;-64
2021/08/09 05:29:30;;;;;;;;;;;16.00;87.80;;;;;;4953998;28;20410;-64
2021/08/09 05:31:55;;;;;;;;;;;16.10;87.70;;;;;;4952692;28;19919;-64
2021/08/09 05:34:21;;;;;;;;;;;16.20;87.50;;;;;;4953585;28;19926;-65
2021/08/09 05:36:46;;;;;;;;;;;16.30;87.30;;;;;;4936267;29;20402;-62
2021/08/09 05:39:13;;;;;;;;;;;16.30;87.20;;;;;;4936566;28;20030;-62
2021/08/09 05:41:38;;;;;;;;;;;16.40;86.90;;;;;;4952024;29;20009;-62
2021/08/09 05:44:04;;;;;;;;;;;16.50;87.10;;;;;;4952264;28;20402;-62
2021/08/09 05:46:33;;;;;;;;;;;16.80;89.00;;;;;;4951557;28;19931;-63
2021/08/09 05:49:00;;;;;;;;;;;17.80;91.70;;;;;;4952143;28;19923;-62
2021/08/09 05:51:26;;;;;;;;;;;18.40;90.00;;;;;;4952284;29;20387;-62
2021/08/09 05:53:52;;;;;;;;;;;18.70;89.80;;;;;;4951837;28;19969;-63
2021/08/09 05:56:17;;;;;;;;;;;19.60;90.80;;;;;;4953422;28;19926;-62
2021/08/09 05:58:52;;;;;;;;;;;20.50;90.20;;;;;;4967994;28;19950;-62
2021/08/09 06:01:19;;;;;;;;;;;21.40;87.40;;;;;;4968426;28;20012;-63
2021/08/09 06:03:44;;;;;;;;;;;22.10;85.30;;;;;;4953310;28;19954;-63
2021/08/09 06:06:17;;;;;;;;;;;22.90;85.50;;;;;;4951798;28;19953;-63
2021/08/09 06:08:43;;;;;;;;;;;23.50;81.00;;;;;;4951974;29;19942;-63
2021/08/09 06:11:09;;;;;;;;;;;24.00;78.00;;;;;;4951562;28;19925;-63
2021/08/09 06:13:36;;;;;;;;;;;23.90;74.50;;;;;;4952210;29;19922;-63
2021/08/09 06:16:02;;;;;;;;;;;24.00;74.20;;;;;;4967654;28;19949;-63
2021/08/09 06:18:31;;;;;;;;;;;24.30;73.60;;;;;;4968209;28;19965;-63
2021/08/09 06:20:56;;;;;;;;;;;24.80;72.00;;;;;;4967942;28;19919;-63
2021/08/09 06:23:23;;;;;;;;;;;25.20;70.10;;;;;;4967650;28;19923;-63
2021/08/09 06:25:50;;;;;;;;;;;25.70;69.20;;;;;;4953291;28;19918;-63
2021/08/09 06:28:16;;;;;;;;;;;26.10;66.10;;;;;;4951743;29;19919;-63
2021/08/09 06:30:42;;;;;;;;;;;26.30;64.60;;;;;;4951287;28;19929;-63
2021/08/09 06:33:12;;;;;;;;;;;26.50;63.50;;;;;;4936659;29;19915;-63
2021/08/09 06:35:38;;;;;;;;;;;26.50;61.20;;;;;;4952673;28;19993;-64
2021/08/09 06:38:05;;;;;;;;;;;26.30;60.90;;;;;;4952960;28;19942;-63
2021/08/09 06:40:32;;;;;;;;;;;26.60;62.20;;;;;;4951979;28;20287;-63
2021/08/09 06:43:00;;;;;;;;;;;27.10;60.40;;;;;;4951592;28;19925;-63
2021/08/09 06:45:30;;;;;;;;;;;27.60;59.10;;;;;;4936539;29;20006;-63
2021/08/09 06:47:56;;;;;;;;;;;27.80;57.50;;;;;;4951561;29;19926;-63
2021/08/09 06:50:22;;;;;;;;;;;27.60;55.20;;;;;;4951257;29;19923;-63
2021/08/09 06:52:48;;;;;;;;;;;27.30;55.70;;;;;;4919792;29;20005;-63
2021/08/09 06:55:14;;;;;;;;;;;27.40;57.70;;;;;;4967368;28;19922;-64
2021/08/09 06:57:40;;;;;;;;;;;27.90;57.00;;;;;;5023720;23;19925;-66
2021/08/09 07:00:06;;;;;;;;;;;28.30;56.10;;;;;;4993622;28;19917;-65
2021/08/09 07:02:32;;;;;;;;;;;28.10;54.50;;;;;;5009752;28;20284;-65
2021/08/09 07:04:58;;;;;;;;;;;27.90;53.60;;;;;;5011192;28;19917;-65
2021/08/09 07:07:24;;;;;;;;;;;27.20;52.00;;;;;;5009265;28;19921;-65
2021/08/09 07:09:49;;;;;;;;;;;26.30;51.80;;;;;;5009946;28;19948;-66
2021/08/09 07:12:15;;;;;;;;;;;25.30;52.10;;;;;;5009963;28;19917;-65
2021/08/09 07:14:41;;;;;;;;;;;24.60;53.80;;;;;;4992913;28;19917;-66
2021/08/09 07:17:07;;;;;;;;;;;24.60;56.20;;;;;;5009491;28;19913;-65
2021/08/09 07:19:35;;;;;;;;;;;25.20;58.30;;;;;;5011894;28;20392;-65
2021/08/09 07:22:02;;;;;;;;;;;25.50;56.20;;;;;;5013022;28;20214;-65
2021/08/09 07:24:28;;;;;;;;;;;25.50;56.50;;;;;;5029340;28;19932;-65
2021/08/09 07:26:54;;;;;;;;;;;25.30;55.60;;;;;;5013919;28;19922;-65
2021/08/09 07:29:21;;;;;;;;;;;25.00;55.20;;;;;;5014496;28;19976;-65
2021/08/09 07:31:47;;;;;;;;;;;24.50;54.20;;;;;;5013142;28;20322;-65
2021/08/09 07:34:13;;;;;;;;;;;23.80;54.50;;;;;;5012610;28;20263;-65
2021/08/09 07:36:38;;;;;;;;;;;23.10;55.60;;;;;;5014187;28;19926;-64
2021/08/09 07:39:04;;;;;;;;;;;22.60;57.30;;;;;;5012861;28;19932;-64
2021/08/09 07:41:30;;;;;;;;;;;22.30;58.10;;;;;;5012594;28;19917;-65
2021/08/09 07:43:56;;;;;;;;;;;22.00;58.90;;;;;;5012905;28;19913;-64
2021/08/09 07:46:24;;;;;;;;;;;21.90;59.10;;;;;;4995937;28;20369;-64
2021/08/09 07:48:51;;;;;;;;;;;21.70;60.10;;;;;;5012534;28;19918;-64
2021/08/09 07:51:17;;;;;;;;;;;21.60;61.00;;;;;;5012648;28;20004;-64
2021/08/09 07:53:43;;;;;;;;;;;21.80;62.40;;;;;;5012373;28;19948;-64
2021/08/09 07:56:09;;;;;;;;;;;22.20;62.70;;;;;;5012375;28;20301;-64
2021/08/09 07:58:37;;;;;;;;;;;22.40;62.50;;;;;;5012007;28;19918;-64
2021/08/09 08:01:03;;;;;;;;;;;23.00;63.50;;;;;;5013830;28;19924;-65
2021/08/09 08:03:30;;;;;;;;;;;23.50;62.70;;;;;;5012508;28;20005;-65
2021/08/09 08:05:55;;;;;;;;;;;24.10;63.10;;;;;;5012060;28;20357;-65
2021/08/09 08:08:21;;;;;;;;;;;24.80;63.20;;;;;;5012307;28;19917;-64
2021/08/09 08:10:47;;;;;;;;;;;25.30;60.70;;;;;;5028893;28;20297;-65
2021/08/09 08:13:13;;;;;;;;;;;25.50;59.90;;;;;;5013398;28;19918;-65
2021/08/09 08:15:39;;;;;;;;;;;25.60;58.10;;;;;;5012290;28;19918;-64
2021/08/09 08:18:06;;;;;;;;;;;25.30;57.30;;;;;;5011515;28;19924;-65
2021/08/09 08:20:32;;;;;;;;;;;24.80;57.00;;;;;;5012654;28;19922;-65
2021/08/09 08:23:01;;;;;;;;;;;24.40;57.20;;;;;;5012340;28;20497;-65
2021/08/09 08:25:28;;;;;;;;;;;24.50;59.80;;;;;;5011886;28;19921;-65
2021/08/09 08:27:54;;;;;;;;;;;25.50;61.90;;;;;;5011961;28;20005;-65
2021/08/09 08:30:20;;;;;;;;;;;26.60;60.30;;;;;;5011835;28;20061;-64
2021/08/09 08:32:47;;;;;;;;;;;27.20;58.60;;;;;;5028281;28;19918;-65
2021/08/09 08:35:12;;;;;;;;;;;27.30;55.90;;;;;;5013433;28;19924;-64
2021/08/09 08:37:38;;;;;;;;;;;27.20;55.80;;;;;;5027709;28;19917;-64
2021/08/09 08:40:04;;;;;;;;;;;27.00;55.00;;;;;;5011900;28;19922;-65
2021/08/09 08:42:34;;;;;;;;;;;26.70;54.20;;;;;;5011882;28;19925;-65
2021/08/09 08:45:00;;;;;;;;;;;26.80;56.10;;;;;;5011476;28;20052;-65
2021/08/09 08:47:26;;;;;;;;;;;26.70;54.90;;;;;;5011137;28;19917;-65
2021/08/09 08:49:54;;;;;;;;;;;26.60;54.10;;;;;;4994937;28;20052;-65
2021/08/09 08:52:19;;;;;;;;;;;26.60;54.50;;;;;;5011616;28;19918;-65
2021/08/09 08:54:45;;;;;;;;;;;27.60;57.60;;;;;;5011416;28;19984;-65
2021/08/09 08:57:21;;;;;;;;;;;28.70;55.20;;;;;;5010495;28;19979;-64
2021/08/09 08:59:47;;;;;;;;;;;28.50;53.30;;;;;;5011209;28;20393;-65
2021/08/09 09:02:28;;;;;;;;;;;28.30;52.20;;;;;;5010994;28;19918;-66
2021/08/09 09:05:03;;;;;;;;;;;28.30;54.20;;;;;;5012917;28;19921;-65
2021/08/09 09:07:29;;;;;;;;;;;28.10;51.60;;;;;;5027324;28;20397;-66
2021/08/09 09:10:11;;;;;;;;;;;28.20;53.40;;;;;;5012695;28;20199;-65
2021/08/09 09:12:37;;;;;;;;;;;28.60;51.90;;;;;;5011271;28;19948;-65
2021/08/09 09:15:04;;;;;;;;;;;27.70;48.70;;;;;;5028071;28;19959;-65
2021/08/09 09:17:33;;;;;;;;;;;27.40;52.70;;;;;;5011871;28;19917;-65
2021/08/09 09:20:18;;;;;;;;;;;28.00;53.00;;;;;;5012614;28;19949;-66
2021/08/09 09:22:44;;;;;;;;;;;27.80;50.80;;;;;;5012052;28;20024;-64
2021/08/09 09:25:10;;;;;;;;;;;27.30;50.00;;;;;;5012287;28;19924;-65
2021/08/09 09:27:35;;;;;;;;;;;26.90;50.70;;;;;;5010934;28;19959;-65
2021/08/09 09:30:21;;;;;;;;;;;26.90;52.30;;;;;;5011946;28;21640;-64
2021/08/09 09:33:03;;;;;;;;;;;27.60;53.30;;;;;;5012225;28;19918;-66
2021/08/09 09:35:29;;;;;;;;;;;28.30;53.10;;;;;;5012005;28;20088;-66
2021/08/09 09:37:54;;;;;;;;;;;28.60;50.30;;;;;;5012155;28;20036;-65
2021/08/09 09:40:20;;;;;;;;;;;28.10;49.00;;;;;;5012069;28;19917;-65
2021/08/09 09:42:46;;;;;;;;;;;27.50;48.70;;;;;;5010588;28;19925;-66
2021/08/09 09:45:19;;;;;;;;;;;28.00;52.40;;;;;;5013191;28;19925;-71
2021/08/09 09:47:45;;;;;;;;;;;30.10;53.60;;;;;;5013279;28;19917;-70
2021/08/09 09:50:24;;;;;;;;;;;32.50;52.70;;;;;;5012688;28;19940;-70
2021/08/09 09:52:50;;;;;;;;;;;34.70;50.80;;;;;;5011141;28;19924;-70
2021/08/09 09:55:16;;;;;;;;;;;36.70;48.70;;;;;;5012445;28;19918;-70
2021/08/09 09:57:43;;;;;;;;;;;36.50;42.80;;;;;;5011280;28;19921;-70
2021/08/09 10:00:11;;;;;;;;;;;36.60;43.00;;;;;;5012050;28;19971;-71
2021/08/09 10:02:40;;;;;;;;;;;37.70;42.90;;;;;;5012083;28;19917;-70
2021/08/09 10:05:06;;;;;;;;;;;38.00;40.30;;;;;;5011639;28;20024;-71
2021/08/09 10:07:34;;;;;;;;;;;36.80;36.70;;;;;;5011588;28;20004;-70
2021/08/09 10:09:59;;;;;;;;;;;35.90;39.00;;;;;;5010157;28;19922;-70
2021/08/09 10:12:26;;;;;;;;;;;36.60;39.90;;;;;;5010596;28;19925;-70
2021/08/09 10:14:55;;;;;;;;;;;36.70;38.30;;;;;;5011779;28;19918;-71
2021/08/09 10:17:24;;;;;;;;;;;35.90;37.00;;;;;;5011204;28;19917;-70
2021/08/09 10:19:51;;;;;;;;;;;36.10;38.60;;;;;;5011770;28;19991;-65
2021/08/09 10:22:20;;;;;;;;;;;37.20;38.80;;;;;;5011268;28;19914;-65
2021/08/09 10:24:46;;;;;;;;;;;37.10;36.80;;;;;;5011812;28;19918;-66
2021/08/09 10:27:12;;;;;;;;;;;36.90;36.60;;;;;;5011534;28;19936;-66
2021/08/09 10:30:06;;;;;;;;;;;35.70;34.00;;;;;;5011474;28;19925;-64
2021/08/09 10:32:41;;;;;;;;;;;33.70;34.00;;;;;;5002546;28;19918;-64
2021/08/09 10:35:27;;;;;;;;;;;31.40;35.20;;;;;;5011758;28;19956;-64
2021/08/09 10:38:11;;;;;;;;;;;30.20;37.10;;;;;;5010822;28;19932;-64
2021/08/09 10:40:37;;;;;;;;;;;29.70;38.70;;;;;;5011656;28;19918;-65
2021/08/09 10:43:02;;;;;;;;;;;29.60;39.50;;;;;;5011268;28;20285;-64
2021/08/09 10:45:41;;;;;;;;;;;29.50;40.00;;;;;;5011558;28;20336;-64
2021/08/09 10:48:09;;;;;;;;;;;29.50;40.30;;;;;;5010868;28;19979;-64
2021/08/09 10:50:39;;;;;;;;;;;29.30;39.50;;;;;;5011538;28;20373;-65
2021/08/09 10:53:24;;;;;;;;;;;29.20;40.60;;;;;;5011185;28;19928;-70
2021/08/09 10:55:50;;;;;;;;;;;29.40;41.00;;;;;;5015016;28;19924;-69
2021/08/09 10:58:34;;;;;;;;;;;29.80;40.70;;;;;;5014444;28;19944;-70
2021/08/09 11:01:00;;;;;;;;;;;30.20;41.20;;;;;;5015277;28;19924;-70
2021/08/09 11:03:25;;;;;;;;;;;31.10;41.50;;;;;;5013762;28;20000;-70
2021/08/09 11:05:51;;;;;;;;;;;31.90;41.50;;;;;;5015205;28;20389;-71
2021/08/09 11:08:26;;;;;;;;;;;31.80;39.70;;;;;;5013580;28;19917;-70
2021/08/09 11:10:59;;;;;;;;;;;31.40;39.20;;;;;;5013470;28;19921;-69
2021/08/09 11:13:25;;;;;;;;;;;30.90;38.60;;;;;;5014965;28;20029;-70
2021/08/09 11:15:54;;;;;;;;;;;30.50;40.00;;;;;;5029625;28;19918;-70
2021/08/09 11:18:20;;;;;;;;;;;31.00;41.00;;;;;;5014604;28;19940;-70
2021/08/09 11:20:46;;;;;;;;;;;31.40;40.20;;;;;;5014564;28;20289;-70
2021/08/09 11:23:12;;;;;;;;;;;31.60;40.40;;;;;;5013591;28;19925;-70
2021/08/09 11:25:41;;;;;;;;;;;32.40;40.20;;;;;;5014818;28;19914;-70
2021/08/09 11:28:15;;;;;;;;;;;31.80;37.90;;;;;;5014094;28;19957;-70
2021/08/09 11:30:42;;;;;;;;;;;30.80;38.30;;;;;;5014664;28;19929;-70
2021/08/09 11:33:20;;;;;;;;;;;30.20;39.30;;;;;;5014379;28;19917;-70
2021/08/09 11:35:46;;;;;;;;;;;29.80;39.60;;;;;;5014534;28;19917;-70
2021/08/09 11:38:12;;;;;;;;;;;29.70;41.00;;;;;;5014312;28;19921;-69
2021/08/09 11:40:46;;;;;;;;;;;29.60;40.60;;;;;;5013811;28;19917;-70
2021/08/09 11:43:16;;;;;;;;;;;29.20;40.40;;;;;;5014363;28;19918;-70
2021/08/09 11:45:42;;;;;;;;;;;28.70;40.70;;;;;;5014018;28;19923;-70
2021/08/09 11:48:08;;;;;;;;;;;28.40;41.70;;;;;;5014011;28;20001;-69
2021/08/09 11:50:35;;;;;;;;;;;28.10;41.80;;;;;;5013824;28;20384;-70
2021/08/09 11:53:00;;;;;;;;;;;27.80;42.30;;;;;;5014316;28;20279;-70
2021/08/09 11:55:26;;;;;;;;;;;27.60;42.70;;;;;;5014251;28;19917;-70
2021/08/09 11:57:52;;;;;;;;;;;27.70;43.90;;;;;;5012045;28;19921;-68
2021/08/09 12:00:18;;;;;;;;;;;28.00;43.80;;;;;;5012819;28;19929;-70
2021/08/09 12:03:02;;;;;;;;;;;27.90;43.90;;;;;;5013978;28;19925;-71
2021/08/09 12:05:27;;;;;;;;;;;27.40;42.60;;;;;;5013158;28;19921;-71
2021/08/09 12:08:03;;;;;;;;;;;26.90;43.20;;;;;;5013598;28;20370;-70
2021/08/09 12:10:29;;;;;;;;;;;26.60;43.40;;;;;;5012095;28;19928;-71
2021/08/09 12:12:55;;;;;;;;;;;26.40;44.10;;;;;;5013837;28;19926;-70
2021/08/09 12:15:21;;;;;;;;;;;26.40;45.20;;;;;;5013357;28;19914;-68
2021/08/09 12:18:05;;;;;;;;;;;26.60;45.20;;;;;;5013282;28;19917;-70
2021/08/09 12:20:31;;;;;;;;;;;26.70;45.50;;;;;;5013774;28;19918;-70
2021/08/09 12:22:57;;;;;;;;;;;26.60;45.20;;;;;;5013396;28;20381;-69
2021/08/09 12:25:33;;;;;;;;;;;26.50;45.20;;;;;;5028515;28;19920;-70
2021/08/09 12:28:00;;;;;;;;;;;26.30;45.20;;;;;;5012897;28;20322;-69
2021/08/09 12:30:25;;;;;;;;;;;26.10;45.60;;;;;;5028641;28;19925;-70
2021/08/09 12:33:00;;;;;;;;;;;26.00;46.00;;;;;;5013085;28;19913;-69
2021/08/09 12:35:31;;;;;;;;;;;25.90;46.00;;;;;;5012065;28;19918;-68
2021/08/09 12:37:57;;;;;;;;;;;25.90;46.60;;;;;;5012848;28;19922;-72
2021/08/09 12:40:22;;;;;;;;;;;25.80;46.40;;;;;;4992696;28;20015;-69
2021/08/09 12:43:06;;;;;;;;;;;25.70;46.40;;;;;;4992110;28;19940;-71
2021/08/09 12:45:32;;;;;;;;;;;25.60;46.60;;;;;;4993241;28;19960;-70
2021/08/09 12:47:57;;;;;;;;;;;25.60;47.30;;;;;;4993135;28;19965;-69
2021/08/09 12:50:23;;;;;;;;;;;25.70;47.10;;;;;;4993036;28;19918;-69
2021/08/09 12:52:48;;;;;;;;;;;25.70;47.00;;;;;;5008300;28;19917;-71
2021/08/09 12:55:14;;;;;;;;;;;25.90;47.50;;;;;;4993199;28;20073;-70
2021/08/09 12:57:40;;;;;;;;;;;26.00;47.00;;;;;;4993021;28;19937;-65
2021/08/09 13:00:06;;;;;;;;;;;25.80;46.90;;;;;;4991909;28;19918;-65
2021/08/09 13:02:32;;;;;;;;;;;25.60;47.00;;;;;;4993387;28;19922;-65
2021/08/09 13:04:57;;;;;;;;;;;25.20;46.90;;;;;;4992956;28;20358;-65
2021/08/09 13:07:23;;;;;;;;;;;25.10;48.10;;;;;;4992904;28;19918;-64
2021/08/09 13:09:48;;;;;;;;;;;25.50;48.30;;;;;;4993136;28;20024;-65
2021/08/09 13:12:14;;;;;;;;;;;25.70;48.40;;;;;;4992929;28;20377;-65
2021/08/09 13:14:41;;;;;;;;;;;26.00;48.50;;;;;;4992632;28;21270;-65
2021/08/09 13:17:07;;;;;;;;;;;26.10;47.80;;;;;;4991530;28;19924;-65
2021/08/09 13:19:32;;;;;;;;;;;25.80;47.10;;;;;;4993361;28;19977;-65
2021/08/09 13:21:58;;;;;;;;;;;25.50;47.60;;;;;;5008151;28;19939;-68
2021/08/09 13:24:23;;;;;;;;;;;25.30;47.70;;;;;;4992550;28;20289;-64
2021/08/09 13:26:49;;;;;;;;;;;25.00;47.60;;;;;;4992560;28;20000;-65
2021/08/09 13:29:15;;;;;;;;;;;24.70;48.10;;;;;;4992692;28;19926;-64
2021/08/09 13:31:40;;;;;;;;;;;24.50;48.40;;;;;;4992431;28;19997;-65
2021/08/09 13:34:06;;;;;;;;;;;24.30;48.70;;;;;;4992702;28;19925;-65
2021/08/09 13:36:33;;;;;;;;;;;24.10;49.40;;;;;;4990866;28;19918;-65
2021/08/09 13:38:59;;;;;;;;;;;24.00;49.90;;;;;;4992362;28;19925;-66
2021/08/09 13:41:24;;;;;;;;;;;24.10;50.90;;;;;;4992812;28;20286;-65
2021/08/09 13:43:50;;;;;;;;;;;24.00;50.50;;;;;;4992254;28;19969;-65
2021/08/09 13:46:15;;;;;;;;;;;24.00;50.80;;;;;;4992481;28;20390;-65
2021/08/09 13:48:45;;;;;;;;;;;23.90;50.90;;;;;;4992243;28;19964;-64
2021/08/09 13:51:11;;;;;;;;;;;23.90;51.20;;;;;;4991949;28;19930;-66
2021/08/09 13:53:37;;;;;;;;;;;23.80;51.40;;;;;;4992477;28;20289;-65
2021/08/09 13:56:03;;;;;;;;;;;23.70;51.40;;;;;;4991894;28;20006;-65
2021/08/09 13:58:28;;;;;;;;;;;23.60;51.80;;;;;;4992309;28;19976;-66
2021/08/09 14:00:54;;;;;;;;;;;23.40;52.00;;;;;;4992400;28;19914;-64
2021/08/09 14:03:19;;;;;;;;;;;23.40;52.30;;;;;;4992003;28;20375;-65
2021/08/09 14:05:45;;;;;;;;;;;23.40;52.70;;;;;;4992288;28;19968;-66
2021/08/09 14:08:10;;;;;;;;;;;23.60;53.00;;;;;;4991295;28;19918;-64
2021/08/09 14:10:36;;;;;;;;;;;23.70;53.20;;;;;;4990833;28;20033;-64
2021/08/09 14:13:01;;;;;;;;;;;23.80;53.10;;;;;;4990912;28;19922;-65
2021/08/09 14:15:27;;;;;;;;;;;23.80;52.70;;;;;;4991808;28;19970;-65
2021/08/09 14:17:54;;;;;;;;;;;23.80;52.90;;;;;;5006756;28;19918;-64